Time;durP1;ratioP1;P1;durP2;ratioP2;P2;SDS_P1;SDS_P2;PMS_P1;PMS_P2;Temp;Humidity;BMP_temperature;BMP_pressure;BME280_temperature;BME280_humidity;BME280_pressure;Samples;Min_cycle;Max_cycle;Signal;HPM_P1;HPM_P2
2023/08/15 00:00:36;;;;;;;12.57;1.10;;;;;;;;;;5074577;28;20209;-75
2023/08/15 00:03:04;;;;;;;12.57;1.10;;;;;;;;;;5083490;28;20840;-75
2023/08/15 00:05:31;;;;;;;14.73;1.57;;;;;;;;;;5081304;28;20830;-75
2023/08/15 00:08:00;;;;;;;12.43;1.17;;;;;;;;;;5084050;28;20490;-75
2023/08/15 00:10:27;;;;;;;12.87;1.40;;;;;;;;;;5091512;28;20438;-74
2023/08/15 00:12:54;;;;;;;12.60;1.00;;;;;;;;;;5078716;28;20409;-75
2023/08/15 00:15:20;;;;;;;12.60;1.17;;;;;;;;;;5085849;28;20434;-76
2023/08/15 00:17:47;;;;;;;12.53;1.10;;;;;;;;;;5081250;28;20946;-74
2023/08/15 00:20:15;;;;;;;12.73;1.20;;;;;;;;;;5086549;28;20434;-75
2023/08/15 00:22:42;;;;;;;12.57;1.20;;;;;;;;;;5079377;28;20458;-75
2023/08/15 00:25:08;;;;;;;12.63;1.30;;;;;;;;;;5081002;28;20439;-75
2023/08/15 00:27:35;;;;;;;12.67;1.20;;;;;;;;;;5087700;28;20413;-76
2023/08/15 00:30:03;;;;;;;12.63;1.17;;;;;;;;;;5083139;28;20442;-76
2023/08/15 00:32:31;;;;;;;13.00;1.10;;;;;;;;;;5082058;28;21002;-73
2023/08/15 00:34:58;;;;;;;12.97;1.43;;;;;;;;;;5090071;28;20447;-76
2023/08/15 00:37:26;;;;;;;12.73;0.97;;;;;;;;;;5065303;28;20531;-76
2023/08/15 00:39:54;;;;;;;12.80;1.33;;;;;;;;;;5085146;28;20413;-76
2023/08/15 00:42:21;;;;;;;12.57;1.17;;;;;;;;;;5074290;28;20410;-78
2023/08/15 00:44:48;;;;;;;14.10;1.00;;;;;;;;;;5059325;28;20412;-76
2023/08/15 00:47:15;;;;;;;13.60;1.20;;;;;;;;;;5075865;28;20425;-76
2023/08/15 00:49:42;;;;;;;13.88;1.45;;;;;;;;;;5085171;28;20422;-75
2023/08/15 00:52:09;;;;;;;13.70;1.30;;;;;;;;;;5082314;28;20418;-76
2023/08/15 00:54:40;;;;;;;14.20;1.50;;;;;;;;;;5081768;28;20419;-74
2023/08/15 00:57:06;;;;;;;12.70;1.30;;;;;;;;;;5078465;28;20609;-77
2023/08/15 00:59:33;;;;;;;12.70;1.37;;;;;;;;;;5081411;28;20492;-75
2023/08/15 01:02:00;;;;;;;13.70;1.30;;;;;;;;;;5079008;28;20411;-77
2023/08/15 01:04:27;;;;;;;13.70;1.10;;;;;;;;;;5081574;28;20400;-76
2023/08/15 01:06:53;;;;;;;13.55;1.00;;;;;;;;;;5077002;28;20420;-78
2023/08/15 01:09:20;;;;;;;13.50;1.10;;;;;;;;;;5083999;28;20882;-77
2023/08/15 01:11:51;;;;;;;13.80;1.23;;;;;;;;;;5062135;28;20423;-78
2023/08/15 01:14:19;;;;;;;13.80;1.40;;;;;;;;;;5063312;28;20418;-76
2023/08/15 01:16:48;;;;;;;13.55;1.15;;;;;;;;;;5071305;28;20399;-76
2023/08/15 01:19:21;;;;;;;13.57;1.17;;;;;;;;;;5080961;28;20407;-77
2023/08/15 01:21:48;;;;;;;13.32;1.10;;;;;;;;;;5084784;28;20451;-74
2023/08/15 01:24:19;;;;;;;13.40;1.00;;;;;;;;;;5076749;28;20415;-76
2023/08/15 01:26:46;;;;;;;13.70;1.17;;;;;;;;;;5087710;28;20774;-76
2023/08/15 01:29:12;;;;;;;13.40;1.00;;;;;;;;;;5084452;28;20490;-77
2023/08/15 01:31:42;;;;;;;13.55;1.02;;;;;;;;;;5082446;28;20485;-77
2023/08/15 01:34:11;;;;;;;13.80;1.20;;;;;;;;;;5089242;28;20748;-77
2023/08/15 01:36:43;;;;;;;13.50;1.23;;;;;;;;;;5081457;28;20502;-75
2023/08/15 01:39:10;;;;;;;14.13;1.40;;;;;;;;;;5063660;28;20497;-75
2023/08/15 01:41:41;;;;;;;13.85;1.23;;;;;;;;;;5086284;28;20408;-75
2023/08/15 01:44:09;;;;;;;14.30;1.50;;;;;;;;;;5078026;28;20400;-77
2023/08/15 01:46:36;;;;;;;13.55;1.25;;;;;;;;;;5070452;28;20419;-76
2023/08/15 01:49:03;;;;;;;12.53;1.00;;;;;;;;;;5071559;28;20752;-74
2023/08/15 01:51:29;;;;;;;12.63;1.27;;;;;;;;;;5072361;28;20567;-75
2023/08/15 01:53:56;;;;;;;12.47;1.10;;;;;;;;;;5063331;28;20565;-76
2023/08/15 01:56:23;;;;;;;13.93;1.50;;;;;;;;;;5077554;28;20521;-75
2023/08/15 01:58:51;;;;;;;13.70;1.10;;;;;;;;;;5081001;28;20767;-75
2023/08/15 02:01:18;;;;;;;14.50;1.40;;;;;;;;;;5072000;28;20432;-76
2023/08/15 02:03:45;;;;;;;13.70;1.40;;;;;;;;;;5073634;28;20408;-75
2023/08/15 02:06:12;;;;;;;15.10;1.40;;;;;;;;;;5056401;28;20774;-76
2023/08/15 02:08:39;;;;;;;13.88;1.80;;;;;;;;;;5076221;28;20423;-76
2023/08/15 02:11:06;;;;;;;13.70;1.33;;;;;;;;;;5081077;28;20414;-75
2023/08/15 02:13:33;;;;;;;13.60;1.30;;;;;;;;;;5063118;28;20415;-75
2023/08/15 02:16:01;;;;;;;14.60;1.30;;;;;;;;;;5069128;28;20416;-75
2023/08/15 02:18:28;;;;;;;14.40;1.40;;;;;;;;;;5076720;28;20411;-76
2023/08/15 02:20:55;;;;;;;13.70;1.20;;;;;;;;;;5063857;28;20473;-76
2023/08/15 02:23:22;;;;;;;13.37;1.10;;;;;;;;;;5065138;28;20430;-76
2023/08/15 02:25:48;;;;;;;13.07;1.50;;;;;;;;;;5078307;28;20919;-75
2023/08/15 02:28:17;;;;;;;12.63;1.10;;;;;;;;;;5083644;28;20432;-77
2023/08/15 02:30:43;;;;;;;12.57;1.10;;;;;;;;;;5066599;28;20475;-78
2023/08/15 02:33:11;;;;;;;13.10;1.30;;;;;;;;;;5065481;28;20481;-78
2023/08/15 02:35:39;;;;;;;12.53;1.10;;;;;;;;;;5080296;28;20437;-77
2023/08/15 02:38:06;;;;;;;12.93;1.33;;;;;;;;;;5070968;28;20477;-77
2023/08/15 02:40:33;;;;;;;12.53;1.00;;;;;;;;;;5059635;28;20417;-78
2023/08/15 02:42:59;;;;;;;13.47;1.57;;;;;;;;;;5082556;28;20500;-80
2023/08/15 02:45:26;;;;;;;13.57;1.67;;;;;;;;;;5067410;28;20426;-79
2023/08/15 02:47:53;;;;;;;12.63;1.20;;;;;;;;;;5078023;28;20542;-77
2023/08/15 02:50:21;;;;;;;13.17;1.77;;;;;;;;;;5084153;28;20801;-81
2023/08/15 02:52:48;;;;;;;13.17;1.30;;;;;;;;;;5070090;28;20453;-80
2023/08/15 02:55:15;;;;;;;14.47;1.80;;;;;;;;;;5066463;28;20421;-79
2023/08/15 02:57:41;;;;;;;12.77;1.27;;;;;;;;;;5086358;28;20933;-80
2023/08/15 03:00:09;;;;;;;13.85;1.40;;;;;;;;;;5080332;28;21238;-80
2023/08/15 03:02:36;;;;;;;12.73;1.03;;;;;;;;;;5082015;28;20216;-81
2023/08/15 03:05:03;;;;;;;16.23;1.50;;;;;;;;;;5085329;28;20461;-80
2023/08/15 03:07:31;;;;;;;13.13;1.30;;;;;;;;;;5065624;28;21021;-80
2023/08/15 03:09:58;;;;;;;13.20;1.67;;;;;;;;;;5077113;28;20487;-80
2023/08/15 03:12:24;;;;;;;12.83;1.50;;;;;;;;;;5080685;28;20505;-80
2023/08/15 03:14:51;;;;;;;12.57;1.10;;;;;;;;;;5086263;28;20418;-80
2023/08/15 03:17:19;;;;;;;12.83;1.47;;;;;;;;;;5081061;28;20438;-78
2023/08/15 03:19:46;;;;;;;13.40;1.23;;;;;;;;;;5082910;28;20477;-79
2023/08/15 03:22:12;;;;;;;13.27;2.00;;;;;;;;;;5070130;28;20446;-79
2023/08/15 03:24:40;;;;;;;12.87;1.53;;;;;;;;;;5076898;28;20818;-80
2023/08/15 03:27:07;;;;;;;13.40;1.40;;;;;;;;;;5077776;28;20904;-79
2023/08/15 03:29:35;;;;;;;12.80;1.23;;;;;;;;;;5083534;28;20438;-79
2023/08/15 03:32:01;;;;;;;12.73;1.20;;;;;;;;;;5067841;28;20531;-79
2023/08/15 03:34:33;;;;;;;13.00;1.27;;;;;;;;;;5078852;28;20483;-79
2023/08/15 03:37:00;;;;;;;13.00;1.43;;;;;;;;;;5084187;28;20925;-79
2023/08/15 03:39:26;;;;;;;13.30;1.20;;;;;;;;;;5066895;28;20459;-79
2023/08/15 03:41:54;;;;;;;12.80;1.40;;;;;;;;;;5076013;28;20492;-78
2023/08/15 03:44:21;;;;;;;12.93;1.23;;;;;;;;;;5062255;28;20534;-79
2023/08/15 03:46:48;;;;;;;12.73;1.17;;;;;;;;;;5083531;28;20922;-78
2023/08/15 03:49:15;;;;;;;12.83;1.20;;;;;;;;;;5062665;28;20516;-79
2023/08/15 03:51:41;;;;;;;13.63;1.40;;;;;;;;;;5081076;28;20997;-80
2023/08/15 03:54:15;;;;;;;12.57;1.00;;;;;;;;;;5081560;28;20845;-79
2023/08/15 03:56:43;;;;;;;12.67;1.10;;;;;;;;;;5079289;28;20425;-78
2023/08/15 03:59:11;;;;;;;12.87;1.43;;;;;;;;;;5075244;28;20429;-79
2023/08/15 04:01:38;;;;;;;12.97;1.37;;;;;;;;;;5089454;28;20860;-80
2023/08/15 04:04:05;;;;;;;12.87;1.10;;;;;;;;;;5086923;28;20798;-79
2023/08/15 04:06:32;;;;;;;13.33;1.13;;;;;;;;;;5067098;28;20821;-80
2023/08/15 04:08:59;;;;;;;12.77;1.13;;;;;;;;;;5066298;28;20478;-80
2023/08/15 04:11:25;;;;;;;13.57;1.70;;;;;;;;;;5086003;28;20451;-80
2023/08/15 04:13:52;;;;;;;13.03;1.37;;;;;;;;;;5066681;28;20442;-79
2023/08/15 04:16:20;;;;;;;12.77;1.40;;;;;;;;;;5066170;28;20439;-78
2023/08/15 04:18:46;;;;;;;13.30;1.83;;;;;;;;;;5066855;28;20532;-80
2023/08/15 04:21:13;;;;;;;12.60;1.03;;;;;;;;;;5084815;28;20451;-80
2023/08/15 04:23:40;;;;;;;13.97;1.83;;;;;;;;;;5069257;28;21023;-77
2023/08/15 04:26:06;;;;;;;13.13;1.60;;;;;;;;;;5081617;28;20473;-80
2023/08/15 04:28:33;;;;;;;12.97;1.70;;;;;;;;;;5081464;28;20413;-80
2023/08/15 04:31:00;;;;;;;12.67;1.10;;;;;;;;;;5083645;28;20451;-80
2023/08/15 04:33:28;;;;;;;13.27;1.33;;;;;;;;;;5085161;28;20510;-80
2023/08/15 04:35:54;;;;;;;12.93;1.40;;;;;;;;;;5076104;28;20418;-80
2023/08/15 04:38:21;;;;;;;12.90;1.43;;;;;;;;;;5083463;28;20550;-80
2023/08/15 04:40:48;;;;;;;13.00;1.17;;;;;;;;;;5088399;28;20971;-80
2023/08/15 04:43:15;;;;;;;12.90;1.27;;;;;;;;;;5062753;28;20498;-80
2023/08/15 04:45:43;;;;;;;13.90;1.53;;;;;;;;;;5086963;28;20662;-81
2023/08/15 04:48:11;;;;;;;12.73;1.30;;;;;;;;;;5081347;28;20450;-80
2023/08/15 04:50:40;;;;;;;13.20;1.50;;;;;;;;;;5085427;28;20799;-80
2023/08/15 04:53:07;;;;;;;15.27;2.23;;;;;;;;;;5088063;28;20570;-82
2023/08/15 04:55:34;;;;;;;13.57;1.83;;;;;;;;;;5072490;28;20507;-80
2023/08/15 04:58:01;;;;;;;13.30;1.50;;;;;;;;;;5085866;28;20420;-80
2023/08/15 05:00:28;;;;;;;13.30;1.50;;;;;;;;;;5086154;28;20814;-80
2023/08/15 05:02:58;;;;;;;12.67;1.27;;;;;;;;;;5086189;28;20936;-81
2023/08/15 05:05:25;;;;;;;14.73;1.60;;;;;;;;;;5073394;28;20803;-81
2023/08/15 05:07:54;;;;;;;12.77;1.13;;;;;;;;;;5071139;28;20441;-81
2023/08/15 05:10:20;;;;;;;13.63;1.90;;;;;;;;;;5062648;28;20454;-80
2023/08/15 05:12:47;;;;;;;13.60;1.70;;;;;;;;;;5086310;28;20448;-78
2023/08/15 05:15:14;;;;;;;13.17;1.70;;;;;;;;;;5068145;28;20462;-78
2023/08/15 05:17:43;;;;;;;12.70;1.10;;;;;;;;;;5079517;28;20462;-80
2023/08/15 05:20:12;;;;;;;12.83;1.23;;;;;;;;;;5084647;28;20905;-81
2023/08/15 05:22:39;;;;;;;13.30;1.43;;;;;;;;;;5067470;28;20476;-80
2023/08/15 05:25:08;;;;;;;12.87;1.10;;;;;;;;;;5069189;28;20442;-81
2023/08/15 05:27:43;;;;;;;12.80;1.00;;;;;;;;;;5060140;28;20521;-80
2023/08/15 05:30:11;;;;;;;13.27;1.30;;;;;;;;;;5067513;28;20438;-80
2023/08/15 05:32:39;;;;;;;12.63;1.00;;;;;;;;;;5068822;28;20454;-80
2023/08/15 05:35:06;;;;;;;13.90;1.47;;;;;;;;;;5080566;28;20442;-81
2023/08/15 05:37:33;;;;;;;12.67;1.20;;;;;;;;;;5086143;28;21020;-80
2023/08/15 05:39:59;;;;;;;12.80;1.37;;;;;;;;;;5086176;28;20481;-80
2023/08/15 05:42:31;;;;;;;12.67;1.00;;;;;;;;;;5072666;28;20451;-81
2023/08/15 05:44:58;;;;;;;13.20;1.33;;;;;;;;;;5071845;28;20458;-82
2023/08/15 05:47:27;;;;;;;12.70;1.07;;;;;;;;;;5092198;28;20521;-81
2023/08/15 05:49:55;;;;;;;12.67;1.00;;;;;;;;;;5080575;28;20456;-81
2023/08/15 05:52:22;;;;;;;12.73;1.17;;;;;;;;;;5082134;28;20502;-81
2023/08/15 05:54:48;;;;;;;13.60;1.20;;;;;;;;;;5083242;28;20408;-82
2023/08/15 05:57:15;;;;;;;12.70;1.03;;;;;;;;;;5066667;28;20453;-82
2023/08/15 05:59:44;;;;;;;12.87;1.30;;;;;;;;;;5071251;28;20455;-82
2023/08/15 06:02:11;;;;;;;13.20;1.40;;;;;;;;;;5067063;28;20913;-81
2023/08/15 06:04:39;;;;;;;12.80;1.07;;;;;;;;;;5081125;28;20525;-81
2023/08/15 06:07:06;;;;;;;12.97;1.40;;;;;;;;;;5064143;28;20543;-82
2023/08/15 06:09:33;;;;;;;13.40;1.70;;;;;;;;;;5082553;28;20525;-82
2023/08/15 06:12:00;;;;;;;13.07;1.20;;;;;;;;;;5062666;28;20445;-80
2023/08/15 06:14:27;;;;;;;13.00;1.10;;;;;;;;;;5063687;28;21025;-81
2023/08/15 06:16:55;;;;;;;12.73;1.00;;;;;;;;;;5077447;28;20435;-81
2023/08/15 06:19:22;;;;;;;13.17;1.13;;;;;;;;;;5085394;28;20869;-81
2023/08/15 06:21:48;;;;;;;13.37;1.20;;;;;;;;;;5068290;28;20425;-81
2023/08/15 06:24:16;;;;;;;12.63;0.90;;;;;;;;;;5085294;28;20454;-82
2023/08/15 06:26:43;;;;;;;12.63;1.10;;;;;;;;;;5063721;28;20446;-82
2023/08/15 06:29:10;;;;;;;13.23;1.50;;;;;;;;;;5063440;28;20458;-81
2023/08/15 06:31:36;;;;;;;13.10;1.27;;;;;;;;;;5079346;28;21007;-81
2023/08/15 06:34:05;;;;;;;12.63;0.90;;;;;;;;;;5084514;28;20994;-80
2023/08/15 06:36:31;;;;;;;12.63;0.90;;;;;;;;;;5066246;28;20951;-81
2023/08/15 06:38:58;;;;;;;12.83;1.00;;;;;;;;;;5083616;28;20437;-80
2023/08/15 06:41:25;;;;;;;13.13;1.30;;;;;;;;;;5059637;28;20464;-80
2023/08/15 06:43:53;;;;;;;12.93;1.30;;;;;;;;;;5064496;28;20435;-80
2023/08/15 06:46:19;;;;;;;12.93;1.17;;;;;;;;;;5063572;28;20439;-79
2023/08/15 06:48:46;;;;;;;12.63;1.00;;;;;;;;;;5071224;28;20488;-80
2023/08/15 06:51:15;;;;;;;13.07;1.20;;;;;;;;;;5062318;28;20541;-81
2023/08/15 06:53:44;;;;;;;12.83;1.23;;;;;;;;;;5089100;28;20568;-81
2023/08/15 06:56:11;;;;;;;12.73;1.20;;;;;;;;;;5066419;28;20454;-81
2023/08/15 06:58:39;;;;;;;12.90;1.30;;;;;;;;;;5084031;28;20507;-80
2023/08/15 07:01:06;;;;;;;12.70;1.00;;;;;;;;;;5086470;28;20901;-80
2023/08/15 07:03:33;;;;;;;12.73;1.10;;;;;;;;;;5080870;28;20441;-81
2023/08/15 07:06:00;;;;;;;12.77;1.20;;;;;;;;;;5081585;28;20430;-80
2023/08/15 07:08:29;;;;;;;12.63;0.97;;;;;;;;;;5076535;28;20467;-80
2023/08/15 07:10:57;;;;;;;12.83;1.43;;;;;;;;;;5077922;28;20537;-80
2023/08/15 07:13:24;;;;;;;12.63;1.10;;;;;;;;;;5067081;28;20548;-80
2023/08/15 07:15:54;;;;;;;12.83;1.33;;;;;;;;;;5081520;28;20450;-80
2023/08/15 07:18:21;;;;;;;12.73;1.30;;;;;;;;;;5083525;28;20434;-80
2023/08/15 07:20:48;;;;;;;12.53;1.00;;;;;;;;;;5079292;28;20775;-80
2023/08/15 07:23:16;;;;;;;12.73;1.10;;;;;;;;;;5082916;28;20432;-80
2023/08/15 07:25:44;;;;;;;12.67;1.20;;;;;;;;;;5060788;28;20420;-81
2023/08/15 07:28:12;;;;;;;12.67;1.17;;;;;;;;;;5079528;28;20438;-81
2023/08/15 07:30:39;;;;;;;12.67;1.00;;;;;;;;;;5076740;28;20520;-80
2023/08/15 07:33:07;;;;;;;12.87;1.40;;;;;;;;;;5084451;28;20960;-81
2023/08/15 07:35:35;;;;;;;13.70;1.67;;;;;;;;;;5084612;28;20475;-79
2023/08/15 07:38:01;;;;;;;12.77;1.23;;;;;;;;;;5091016;28;20892;-78
2023/08/15 07:40:29;;;;;;;13.07;1.27;;;;;;;;;;5081969;28;20438;-79
2023/08/15 07:42:57;;;;;;;13.00;1.37;;;;;;;;;;5088218;28;20438;-79
2023/08/15 07:45:24;;;;;;;12.90;1.37;;;;;;;;;;5081864;28;20427;-78
2023/08/15 07:47:53;;;;;;;12.63;1.07;;;;;;;;;;5063905;28;20618;-77
2023/08/15 07:50:26;;;;;;;12.77;1.00;;;;;;;;;;5070157;28;20428;-77
2023/08/15 07:52:54;;;;;;;13.50;1.53;;;;;;;;;;5071566;28;21063;-77
2023/08/15 07:55:21;;;;;;;12.73;1.10;;;;;;;;;;5067010;28;20534;-77
2023/08/15 07:57:48;;;;;;;12.67;1.00;;;;;;;;;;5067765;28;20433;-77
2023/08/15 08:00:18;;;;;;;12.97;1.63;;;;;;;;;;5084777;28;20459;-77
2023/08/15 08:02:47;;;;;;;12.87;1.20;;;;;;;;;;5083051;28;20955;-77
2023/08/15 08:05:16;;;;;;;12.73;1.10;;;;;;;;;;5089481;28;20452;-77
2023/08/15 08:07:44;;;;;;;13.03;1.30;;;;;;;;;;5087383;28;20552;-76
2023/08/15 08:10:11;;;;;;;12.70;1.20;;;;;;;;;;5072617;28;20414;-77
2023/08/15 08:12:37;;;;;;;13.27;1.50;;;;;;;;;;5077619;28;20405;-76
2023/08/15 08:15:05;;;;;;;13.07;1.80;;;;;;;;;;5066945;28;20477;-76
2023/08/15 08:17:33;;;;;;;12.83;1.63;;;;;;;;;;5082617;28;20555;-77
2023/08/15 08:20:00;;;;;;;12.67;1.13;;;;;;;;;;5083677;28;20883;-77
2023/08/15 08:22:27;;;;;;;12.77;1.20;;;;;;;;;;5079573;28;21071;-77
2023/08/15 08:24:53;;;;;;;13.67;1.53;;;;;;;;;;5084805;28;20813;-77
2023/08/15 08:27:21;;;;;;;13.60;1.90;;;;;;;;;;5065518;28;20599;-77
2023/08/15 08:29:47;;;;;;;13.20;1.73;;;;;;;;;;5081128;28;20525;-77
2023/08/15 08:32:14;;;;;;;12.77;1.30;;;;;;;;;;5079799;28;20849;-77
2023/08/15 08:34:42;;;;;;;13.97;1.33;;;;;;;;;;5084876;28;20446;-77
2023/08/15 08:37:08;;;;;;;13.57;2.13;;;;;;;;;;5088187;28;20439;-79
2023/08/15 08:39:35;;;;;;;12.93;1.47;;;;;;;;;;5073750;28;20437;-77
2023/08/15 08:42:03;;;;;;;13.60;1.53;;;;;;;;;;5083382;28;21239;-76
2023/08/15 08:44:31;;;;;;;12.70;1.20;;;;;;;;;;5070998;28;20417;-76
2023/08/15 08:46:59;;;;;;;12.97;1.27;;;;;;;;;;5083200;28;20512;-76
2023/08/15 08:49:27;;;;;;;13.60;1.90;;;;;;;;;;5080493;28;20534;-77
2023/08/15 08:51:56;;;;;;;15.07;1.63;;;;;;;;;;5082181;28;20934;-76
2023/08/15 08:54:23;;;;;;;12.87;1.50;;;;;;;;;;5083436;28;20462;-77
2023/08/15 08:57:10;;;;;;;13.03;1.47;;;;;;;;;;5079075;28;20778;-76
2023/08/15 08:59:39;;;;;;;13.20;1.40;;;;;;;;;;5083086;28;20901;-76
2023/08/15 09:02:08;;;;;;;12.77;1.37;;;;;;;;;;5081570;28;20443;-76
2023/08/15 09:04:37;;;;;;;14.03;1.90;;;;;;;;;;5098401;28;20414;-78
2023/08/15 09:07:11;;;;;;;16.27;1.40;;;;;;;;;;5086794;28;20733;-76
2023/08/15 09:09:39;;;;;;;12.87;1.37;;;;;;;;;;5082009;28;20754;-80
2023/08/15 09:12:06;;;;;;;15.10;1.93;;;;;;;;;;5071251;28;20442;-76
2023/08/15 09:14:38;;;;;;;13.13;1.50;;;;;;;;;;5082707;28;20483;-75
2023/08/15 09:17:06;;;;;;;14.90;2.83;;;;;;;;;;5080386;28;20402;-76
2023/08/15 09:19:38;;;;;;;13.07;1.43;;;;;;;;;;5088028;28;20440;-76
2023/08/15 09:22:20;;;;;;;14.87;1.50;;;;;;;;;;5098163;28;20512;-79
2023/08/15 09:24:56;;;;;;;12.63;1.10;;;;;;;;;;5078010;28;20449;-77
2023/08/15 09:27:23;;;;;;;13.80;1.57;;;;;;;;;;5096455;28;20436;-77
2023/08/15 09:29:50;;;;;;;13.07;1.30;;;;;;;;;;5081323;28;20505;-76
2023/08/15 09:32:17;;;;;;;13.07;1.20;;;;;;;;;;5087800;28;20440;-76
2023/08/15 09:34:44;;;;;;;12.90;1.50;;;;;;;;;;5089710;28;20470;-76
2023/08/15 09:37:12;;;;;;;12.97;1.40;;;;;;;;;;5091697;28;20489;-76
2023/08/15 09:39:39;;;;;;;12.53;0.97;;;;;;;;;;5082569;28;20434;-76
2023/08/15 09:42:07;;;;;;;12.70;1.23;;;;;;;;;;5070056;28;20453;-76
2023/08/15 09:44:37;;;;;;;13.30;1.40;;;;;;;;;;5074494;28;20453;-75
2023/08/15 09:47:06;;;;;;;12.60;1.20;;;;;;;;;;5085889;28;20451;-76
2023/08/15 09:49:34;;;;;;;12.87;1.43;;;;;;;;;;5077916;28;20458;-77
2023/08/15 09:52:08;;;;;;;13.13;1.23;;;;;;;;;;5073245;28;20790;-76
2023/08/15 09:54:42;;;;;;;12.47;1.10;;;;;;;;;;5084442;28;20466;-79
2023/08/15 09:57:20;;;;;;;13.40;1.60;;;;;;;;;;5098249;28;20458;-78
2023/08/15 09:59:49;;;;;;;12.83;1.23;;;;;;;;;;5083155;28;20462;-77
2023/08/15 10:02:21;;;;;;;13.13;1.10;;;;;;;;;;5087755;28;20447;-77
2023/08/15 10:04:51;;;;;;;13.70;1.70;;;;;;;;;;5079890;28;20431;-77
2023/08/15 10:07:19;;;;;;;13.70;1.10;;;;;;;;;;5080117;28;20436;-77
2023/08/15 10:09:47;;;;;;;13.80;1.00;;;;;;;;;;5070747;28;20507;-77
2023/08/15 10:12:14;;;;;;;14.30;1.70;;;;;;;;;;5082549;28;20492;-76
2023/08/15 10:14:42;;;;;;;13.50;1.00;;;;;;;;;;5078645;28;21081;-75
2023/08/15 10:17:09;;;;;;;14.00;1.30;;;;;;;;;;5087157;28;20838;-77
2023/08/15 10:19:36;;;;;;;13.60;1.10;;;;;;;;;;5079217;28;20442;-76
2023/08/15 10:22:03;;;;;;;13.60;1.13;;;;;;;;;;5067050;28;20491;-76
2023/08/15 10:24:30;;;;;;;13.30;1.00;;;;;;;;;;5077792;28;20461;-74
2023/08/15 10:26:59;;;;;;;13.30;0.98;;;;;;;;;;5083353;28;20402;-77
2023/08/15 10:29:25;;;;;;;13.48;1.00;;;;;;;;;;5076033;28;20415;-76
2023/08/15 10:32:03;;;;;;;13.30;1.10;;;;;;;;;;5078348;28;20958;-75
2023/08/15 10:34:31;;;;;;;13.40;0.98;;;;;;;;;;5086144;28;20923;-77
2023/08/15 10:37:25;;;;;;;13.40;0.90;;;;;;;;;;5064593;28;20415;-76
2023/08/15 10:40:04;;;;;;;13.80;1.00;;;;;;;;;;5075395;28;20471;-76
2023/08/15 10:43:01;;;;;;;13.30;1.00;;;;;;;;;;5070498;28;20402;-75
2023/08/15 10:45:29;;;;;;;13.32;1.00;;;;;;;;;;5080582;28;20415;-77
2023/08/15 10:47:59;;;;;;;13.23;1.02;;;;;;;;;;5080038;28;20417;-75
2023/08/15 10:50:28;;;;;;;13.70;1.40;;;;;;;;;;5070117;28;20945;-75
2023/08/15 10:52:57;;;;;;;13.30;1.20;;;;;;;;;;5074958;28;20414;-75
2023/08/15 10:55:25;;;;;;;13.38;1.05;;;;;;;;;;5077886;28;20980;-76
2023/08/15 10:57:54;;;;;;;13.20;0.90;;;;;;;;;;5084166;28;20407;-78
2023/08/15 11:00:21;;;;;;;13.65;1.00;;;;;;;;;;5075947;28;20850;-77
2023/08/15 11:02:49;;;;;;;13.20;0.90;;;;;;;;;;5082571;28;20412;-77
2023/08/15 11:05:19;;;;;;;13.90;1.00;;;;;;;;;;5081941;28;20494;-77
2023/08/15 11:07:46;;;;;;;13.05;0.90;;;;;;;;;;5082385;28;20473;-75
2023/08/15 11:10:13;;;;;;;13.10;0.90;;;;;;;;;;5078289;28;20414;-76
2023/08/15 11:12:46;;;;;;;13.00;0.80;;;;;;;;;;5076384;28;20765;-76
2023/08/15 11:15:14;;;;;;;13.70;1.00;;;;;;;;;;5059847;28;20986;-76
2023/08/15 11:17:43;;;;;;;13.30;0.80;;;;;;;;;;5081678;28;20407;-76
2023/08/15 11:20:11;;;;;;;13.10;0.93;;;;;;;;;;5085489;28;20460;-75
2023/08/15 11:22:39;;;;;;;14.00;0.90;;;;;;;;;;5076911;28;20433;-75
2023/08/15 11:25:08;;;;;;;13.00;0.80;;;;;;;;;;5079311;28;20496;-75
2023/08/15 11:27:38;;;;;;;13.20;0.90;;;;;;;;;;5082920;28;20455;-76
2023/08/15 11:30:08;;;;;;;13.25;1.00;;;;;;;;;;5078117;28;20434;-77
2023/08/15 11:32:38;;;;;;;13.57;1.08;;;;;;;;;;5076430;28;20445;-76
2023/08/15 11:35:05;;;;;;;13.30;1.00;;;;;;;;;;5079902;28;20411;-78
2023/08/15 11:37:33;;;;;;;13.50;1.00;;;;;;;;;;5080031;28;20833;-77
2023/08/15 11:40:01;;;;;;;13.10;0.90;;;;;;;;;;5058336;28;20545;-77
2023/08/15 11:42:30;;;;;;;13.20;0.93;;;;;;;;;;5079522;28;20422;-77
2023/08/15 11:45:00;;;;;;;13.55;1.20;;;;;;;;;;5065956;28;20422;-77
2023/08/15 11:47:29;;;;;;;13.23;1.00;;;;;;;;;;5085683;28;20423;-77
2023/08/15 11:49:57;;;;;;;13.52;1.17;;;;;;;;;;5076515;28;20418;-77
2023/08/15 11:52:24;;;;;;;13.75;1.10;;;;;;;;;;5066953;28;20488;-77
2023/08/15 11:54:50;;;;;;;13.30;1.02;;;;;;;;;;5057066;28;20613;-77
2023/08/15 12:00:14;;;;;;;13.20;1.00;;;;;;;;;;5051227;27;2025414;-77
2023/08/15 12:02:43;;;;;;;13.20;1.10;;;;;;;;;;5083213;28;20814;-77
2023/08/15 12:05:11;;;;;;;13.50;1.20;;;;;;;;;;5068425;28;20417;-77
2023/08/15 12:07:39;;;;;;;13.10;1.00;;;;;;;;;;5093230;28;20596;-77
2023/08/15 12:10:07;;;;;;;13.50;1.35;;;;;;;;;;5061947;28;20404;-77
2023/08/15 12:12:38;;;;;;;13.00;0.90;;;;;;;;;;5057984;28;20430;-77
2023/08/15 12:15:06;;;;;;;13.35;1.05;;;;;;;;;;5050936;28;20412;-76
2023/08/15 12:17:34;;;;;;;13.10;1.10;;;;;;;;;;5065111;28;20450;-77
2023/08/15 12:20:02;;;;;;;13.43;1.10;;;;;;;;;;5061857;28;20419;-77
2023/08/15 12:22:29;;;;;;;13.60;1.50;;;;;;;;;;5043300;28;20413;-76
2023/08/15 12:24:56;;;;;;;13.60;1.10;;;;;;;;;;5076234;28;20975;-76
2023/08/15 12:27:23;;;;;;;13.35;1.15;;;;;;;;;;5078172;28;20414;-77
2023/08/15 12:29:50;;;;;;;13.50;1.20;;;;;;;;;;5043619;28;20761;-77
2023/08/15 12:32:38;;;;;;;13.10;1.10;;;;;;;;;;5066472;28;20446;-77
2023/08/15 12:35:06;;;;;;;13.13;1.17;;;;;;;;;;5057782;28;20415;-76
2023/08/15 12:37:35;;;;;;;13.00;1.00;;;;;;;;;;5045783;28;20933;-77
2023/08/15 12:40:02;;;;;;;13.00;1.00;;;;;;;;;;5061403;28;20435;-77
2023/08/15 12:42:29;;;;;;;13.45;1.30;;;;;;;;;;5041652;28;20399;-77
2023/08/15 12:44:57;;;;;;;13.10;1.00;;;;;;;;;;5058780;28;20834;-75
2023/08/15 12:47:24;;;;;;;13.40;1.10;;;;;;;;;;5048515;28;20420;-76
2023/08/15 12:49:52;;;;;;;13.30;1.10;;;;;;;;;;5059233;28;20400;-76
2023/08/15 12:52:19;;;;;;;13.45;1.10;;;;;;;;;;5066550;28;20779;-77
2023/08/15 12:54:47;;;;;;;13.10;1.00;;;;;;;;;;5057834;28;20416;-76
2023/08/15 12:57:14;;;;;;;13.40;1.20;;;;;;;;;;5057320;28;20417;-75
2023/08/15 12:59:41;;;;;;;13.30;1.00;;;;;;;;;;5061326;28;21115;-77
2023/08/15 13:02:08;;;;;;;13.40;1.20;;;;;;;;;;5079511;28;20461;-76
2023/08/15 13:04:36;;;;;;;13.20;1.10;;;;;;;;;;5062058;28;20416;-75
2023/08/15 13:07:04;;;;;;;13.30;1.20;;;;;;;;;;5065111;28;20472;-75
2023/08/15 13:09:31;;;;;;;13.13;1.05;;;;;;;;;;5075631;28;20399;-76
2023/08/15 13:11:57;;;;;;;13.10;1.00;;;;;;;;;;5047264;28;20478;-76
2023/08/15 13:14:25;;;;;;;13.20;1.10;;;;;;;;;;5064251;28;20766;-78
2023/08/15 13:17:03;;;;;;;13.60;1.30;;;;;;;;;;5036472;28;20433;-75
2023/08/15 13:19:30;;;;;;;13.70;1.20;;;;;;;;;;5052604;28;20423;-77
2023/08/15 13:21:57;;;;;;;13.00;0.90;;;;;;;;;;5037936;28;20437;-76
2023/08/15 13:24:25;;;;;;;13.43;1.10;;;;;;;;;;5061523;28;20415;-75
2023/08/15 13:26:52;;;;;;;13.70;1.10;;;;;;;;;;5043043;28;20405;-75
2023/08/15 13:29:18;;;;;;;13.10;1.00;;;;;;;;;;5052137;28;20404;-77
2023/08/15 13:31:45;;;;;;;13.50;1.17;;;;;;;;;;5063305;28;20405;-76
2023/08/15 13:34:11;;;;;;;13.30;1.10;;;;;;;;;;5040584;28;20405;-75
2023/08/15 13:36:38;;;;;;;13.50;1.10;;;;;;;;;;5040083;28;20469;-75
2023/08/15 13:39:07;;;;;;;13.60;1.30;;;;;;;;;;5045591;28;20479;-76
2023/08/15 13:41:35;;;;;;;13.23;1.10;;;;;;;;;;5064154;28;20409;-76
2023/08/15 13:44:03;;;;;;;13.30;1.10;;;;;;;;;;5052132;28;20527;-76
2023/08/15 13:46:29;;;;;;;13.38;1.15;;;;;;;;;;5050425;28;20471;-75
2023/08/15 13:48:57;;;;;;;13.80;1.40;;;;;;;;;;5048240;28;20789;-75
2023/08/15 13:51:25;;;;;;;13.30;1.10;;;;;;;;;;5051119;28;20421;-77
2023/08/15 13:53:52;;;;;;;13.60;1.10;;;;;;;;;;5046908;28;20419;-75
2023/08/15 13:56:19;;;;;;;13.50;1.08;;;;;;;;;;5027620;28;20426;-77
2023/08/15 13:58:48;;;;;;;13.40;1.30;;;;;;;;;;5040850;28;20923;-75
2023/08/15 14:01:15;;;;;;;13.20;0.90;;;;;;;;;;5048576;28;20469;-76
2023/08/15 14:03:45;;;;;;;13.40;1.10;;;;;;;;;;5035185;28;20445;-76
2023/08/15 14:06:11;;;;;;;13.30;1.10;;;;;;;;;;5028856;28;20512;-75
2023/08/15 14:08:38;;;;;;;13.37;1.10;;;;;;;;;;5046308;28;20898;-75
2023/08/15 14:11:06;;;;;;;13.60;1.20;;;;;;;;;;5028206;28;20459;-76
2023/08/15 14:13:32;;;;;;;13.40;1.08;;;;;;;;;;5046345;28;20513;-75
2023/08/15 14:16:00;;;;;;;13.30;1.10;;;;;;;;;;5025556;28;20424;-76
2023/08/15 14:18:29;;;;;;;13.30;1.10;;;;;;;;;;5035556;28;20427;-76
2023/08/15 14:20:56;;;;;;;13.40;1.20;;;;;;;;;;5042064;28;20464;-76
2023/08/15 14:23:23;;;;;;;13.40;1.10;;;;;;;;;;5055087;28;20458;-76
2023/08/15 14:25:50;;;;;;;13.65;1.35;;;;;;;;;;5058785;28;20393;-76
2023/08/15 14:28:16;;;;;;;13.35;1.10;;;;;;;;;;5030373;28;21069;-76
2023/08/15 14:30:45;;;;;;;13.52;1.20;;;;;;;;;;5028198;28;20457;-77
2023/08/15 14:33:14;;;;;;;13.70;1.30;;;;;;;;;;5038085;28;20421;-76
2023/08/15 14:35:41;;;;;;;13.88;1.10;;;;;;;;;;5059623;28;20874;-76
2023/08/15 14:38:08;;;;;;;13.50;1.17;;;;;;;;;;5046054;28;20475;-77